Time;durP1;ratioP1;P1;durP2;ratioP2;P2;SDS_P1;SDS_P2;PMS_P1;PMS_P2;Temp;Humidity;BMP_temperature;BMP_pressure;BME280_temperature;BME280_humidity;BME280_pressure;Samples;Min_cycle;Max_cycle;Signal;HPM_P1;HPM_P2
2021/01/16 00:01:01;;;;;;;39.85;19.35;;;-1.20;99.90;;;;;;6247053;22;20433;-74
2021/01/16 00:03:27;;;;;;;38.38;19.52;;;-1.30;99.90;;;;;;6247092;23;20010;-74
2021/01/16 00:05:55;;;;;;;38.63;19.98;;;-1.30;99.90;;;;;;6247070;23;20016;-74
2021/01/16 00:08:22;;;;;;;34.33;19.63;;;-1.40;99.90;;;;;;6247418;23;20005;-74
2021/01/16 00:10:55;;;;;;;37.72;19.88;;;-1.40;99.90;;;;;;6220250;23;20463;-75
2021/01/16 00:13:28;;;;;;;37.55;19.13;;;-1.40;99.90;;;;;;6219877;23;20050;-74
2021/01/16 00:15:54;;;;;;;36.42;18.55;;;-1.40;99.90;;;;;;6245675;23;20506;-74
2021/01/16 00:18:22;;;;;;;39.15;18.88;;;-1.40;99.90;;;;;;6245571;23;20343;-74
2021/01/16 00:20:58;;;;;;;36.50;19.52;;;-1.30;99.90;;;;;;6247039;22;20030;-75
2021/01/16 00:23:28;;;;;;;39.60;21.05;;;-1.40;99.90;;;;;;6247092;23;20007;-75
2021/01/16 00:25:55;;;;;;;37.60;19.48;;;-1.40;99.90;;;;;;6245485;23;20087;-74
2021/01/16 00:28:31;;;;;;;33.95;18.52;;;-1.30;99.90;;;;;;6246978;23;20050;-74
2021/01/16 00:30:57;;;;;;;33.58;18.52;;;-1.30;99.90;;;;;;6246993;22;20367;-75
2021/01/16 00:33:32;;;;;;;36.70;19.35;;;-1.20;99.90;;;;;;6245387;23;20000;-75
2021/01/16 00:35:58;;;;;;;36.05;19.08;;;-1.20;99.90;;;;;;6245390;23;20087;-74
2021/01/16 00:38:25;;;;;;;35.75;18.70;;;-1.20;99.90;;;;;;6245366;23;20095;-74
2021/01/16 00:40:51;;;;;;;38.45;19.55;;;-1.20;99.90;;;;;;6218629;23;20065;-74
2021/01/16 00:43:17;;;;;;;37.80;19.08;;;-1.20;99.90;;;;;;6218446;23;20031;-75
2021/01/16 00:45:47;;;;;;;36.83;18.63;;;-1.20;99.90;;;;;;6245155;23;20443;-75
2021/01/16 00:48:15;;;;;;;35.53;18.75;;;-1.10;99.90;;;;;;6218368;23;20343;-74
2021/01/16 00:50:42;;;;;;;33.28;17.63;;;-1.00;99.90;;;;;;6245116;22;20011;-75
2021/01/16 00:53:08;;;;;;;29.67;17.88;;;-1.00;99.90;;;;;;6245223;23;20071;-74
2021/01/16 00:55:37;;;;;;;34.63;19.02;;;-1.00;99.90;;;;;;6245231;23;20336;-74
2021/01/16 00:58:09;;;;;;;35.65;18.40;;;-1.00;99.90;;;;;;6245197;23;20004;-74
2021/01/16 01:00:36;;;;;;;35.22;19.08;;;-1.00;99.90;;;;;;6245031;22;20004;-75
2021/01/16 01:03:02;;;;;;;34.95;17.63;;;-1.10;99.90;;;;;;6218098;23;20313;-74
2021/01/16 01:05:28;;;;;;;38.15;18.80;;;-1.10;99.90;;;;;;6245377;23;20010;-74
2021/01/16 01:07:53;;;;;;;36.35;19.40;;;-1.10;99.90;;;;;;6218365;23;20382;-74
2021/01/16 01:10:27;;;;;;;35.08;18.17;;;-1.20;99.90;;;;;;6244989;22;19996;-74
2021/01/16 01:12:53;;;;;;;35.08;18.95;;;-1.20;99.90;;;;;;6218162;23;20007;-74
2021/01/16 01:15:19;;;;;;;34.13;17.48;;;-1.20;99.90;;;;;;6245476;23;20339;-74
2021/01/16 01:17:56;;;;;;;37.50;18.42;;;-1.20;99.90;;;;;;6245026;23;20027;-74
2021/01/16 01:20:23;;;;;;;34.35;17.95;;;-1.10;99.90;;;;;;6243894;23;20008;-75
2021/01/16 01:22:49;;;;;;;32.35;17.02;;;-1.00;99.90;;;;;;6245386;23;20451;-74
2021/01/16 01:25:15;;;;;;;31.63;18.00;;;-1.10;99.90;;;;;;6244506;23;20006;-74
2021/01/16 01:27:42;;;;;;;33.40;17.85;;;-1.10;99.90;;;;;;6218045;23;20004;-74
2021/01/16 01:30:08;;;;;;;40.72;18.27;;;-1.10;99.90;;;;;;6245169;22;20000;-74
2021/01/16 01:32:34;;;;;;;33.55;17.58;;;-1.20;99.90;;;;;;6218017;23;20058;-74
2021/01/16 01:35:00;;;;;;;35.60;18.67;;;-1.20;99.90;;;;;;6245310;23;20031;-74
2021/01/16 01:37:26;;;;;;;35.20;17.67;;;-1.20;99.90;;;;;;6244867;23;20032;-74
2021/01/16 01:39:51;;;;;;;36.15;18.63;;;-1.20;99.90;;;;;;6221701;22;539980;-74
2021/01/16 01:42:19;;;;;;;30.85;16.85;;;-1.30;99.90;;;;;;6246071;23;20000;-74
2021/01/16 01:44:46;;;;;;;35.03;17.30;;;-1.30;99.90;;;;;;6246006;23;20031;-74
2021/01/16 01:47:17;;;;;;;33.05;17.42;;;-1.30;99.90;;;;;;6246364;23;20012;-74
2021/01/16 01:49:45;;;;;;;34.35;16.85;;;-1.40;99.90;;;;;;6219190;23;20386;-74
2021/01/16 01:52:12;;;;;;;34.03;17.65;;;-1.30;99.90;;;;;;6244446;23;20466;-74
2021/01/16 01:54:38;;;;;;;31.17;16.65;;;-1.40;99.90;;;;;;6244373;23;20508;-74
2021/01/16 01:57:06;;;;;;;33.80;17.92;;;-1.40;99.90;;;;;;6246010;23;20004;-75
2021/01/16 01:59:35;;;;;;;32.70;16.88;;;-1.40;99.90;;;;;;6245963;22;20007;-75
2021/01/16 02:02:01;;;;;;;34.53;16.15;;;-1.30;99.90;;;;;;6246167;23;20008;-74
2021/01/16 02:04:29;;;;;;;33.80;17.40;;;-1.30;99.90;;;;;;6246162;23;20000;-74
2021/01/16 02:06:55;;;;;;;35.38;18.27;;;-1.30;99.90;;;;;;6244439;23;20084;-74
2021/01/16 02:09:21;;;;;;;33.63;17.42;;;-1.40;99.90;;;;;;6244703;22;20036;-75
2021/01/16 02:11:46;;;;;;;38.50;17.73;;;-1.40;99.90;;;;;;6246211;23;20075;-74
2021/01/16 02:14:13;;;;;;;35.65;18.20;;;-1.40;99.90;;;;;;6246355;23;20031;-74
2021/01/16 02:16:44;;;;;;;32.75;17.48;;;-1.30;99.90;;;;;;6245947;23;20011;-74
2021/01/16 02:19:12;;;;;;;34.67;17.83;;;-1.30;99.90;;;;;;6245776;22;20023;-75
2021/01/16 02:21:43;;;;;;;34.80;17.77;;;-1.30;99.90;;;;;;6246111;23;20007;-75
2021/01/16 02:24:19;;;;;;;33.55;18.13;;;-1.40;99.90;;;;;;6245642;23;20004;-74
2021/01/16 02:27:00;;;;;;;33.38;16.50;;;-1.40;99.90;;;;;;6245716;23;20000;-75
2021/01/16 02:29:26;;;;;;;29.98;16.10;;;-1.40;99.90;;;;;;6218830;23;20004;-75
2021/01/16 02:31:59;;;;;;;30.40;15.60;;;-1.40;99.90;;;;;;6244146;23;20007;-74
2021/01/16 02:34:31;;;;;;;32.67;16.42;;;-1.30;99.90;;;;;;6244284;23;20398;-75
2021/01/16 02:37:18;;;;;;;31.40;16.52;;;-1.40;99.90;;;;;;6245725;23;20031;-75
2021/01/16 02:39:53;;;;;;;30.48;15.95;;;-1.40;99.90;;;;;;6245679;22;20332;-74
2021/01/16 02:42:44;;;;;;;27.80;14.65;;;-1.40;99.90;;;;;;6245699;23;20004;-74
2021/01/16 02:45:20;;;;;;;29.15;16.15;;;-1.40;99.90;;;;;;6218789;23;20008;-75
2021/01/16 02:47:57;;;;;;;33.00;15.30;;;-1.30;99.90;;;;;;6245695;23;20041;-75
2021/01/16 02:50:23;;;;;;;28.77;15.00;;;-1.30;99.90;;;;;;6245621;22;20000;-75
2021/01/16 02:52:50;;;;;;;35.25;16.83;;;-1.30;99.90;;;;;;6245940;23;20420;-75
2021/01/16 02:55:16;;;;;;;32.97;17.15;;;-1.40;99.90;;;;;;6245531;23;20028;-75
2021/01/16 02:57:43;;;;;;;32.05;16.05;;;-1.40;99.90;;;;;;6245893;23;20179;-75
2021/01/16 03:00:11;;;;;;;30.00;15.98;;;-1.40;99.90;;;;;;6245501;22;20438;-75
2021/01/16 03:02:49;;;;;;;30.70;14.98;;;-1.50;99.90;;;;;;6243984;23;20039;-75
2021/01/16 03:05:26;;;;;;;27.58;13.98;;;-1.30;99.90;;;;;;6245828;23;20078;-76
2021/01/16 03:07:52;;;;;;;30.00;15.70;;;-1.20;99.90;;;;;;6243957;23;20007;-75
2021/01/16 03:10:19;;;;;;;31.45;14.90;;;-1.30;99.90;;;;;;6245371;22;20340;-75
2021/01/16 03:12:44;;;;;;;32.88;16.27;;;-1.30;99.90;;;;;;6245515;23;20083;-75
2021/01/16 03:15:14;;;;;;;28.35;15.10;;;-1.30;99.90;;;;;;6245582;23;20093;-76
2021/01/16 03:17:47;;;;;;;26.33;15.07;;;-1.30;99.90;;;;;;6245569;23;20474;-75
2021/01/16 03:20:23;;;;;;;;;;;-1.30;99.90;;;;;;6219011;23;20000;-75
2021/01/16 03:22:49;;;;;;;25.90;14.57;;;-1.40;99.90;;;;;;6245880;23;20010;-75
2021/01/16 03:25:19;;;;;;;31.05;15.13;;;-1.40;99.90;;;;;;6245417;23;20067;-75
2021/01/16 03:27:46;;;;;;;24.58;13.18;;;-1.40;99.90;;;;;;6245326;23;20000;-75
2021/01/16 03:30:13;;;;;;;26.77;14.77;;;-1.30;99.90;;;;;;6245420;22;19992;-75
2021/01/16 03:32:39;;;;;;;23.52;13.05;;;-1.30;99.90;;;;;;6245715;23;19996;-75
2021/01/16 03:35:05;;;;;;;25.77;14.05;;;-1.30;99.90;;;;;;6218503;23;20011;-75
2021/01/16 03:37:31;;;;;;;24.17;12.90;;;-1.30;99.90;;;;;;6245315;23;20004;-75
2021/01/16 03:39:57;;;;;;;22.67;13.05;;;-1.30;99.90;;;;;;6224915;23;20143;-75
2021/01/16 03:42:22;;;;;;;21.50;11.75;;;-1.30;99.90;;;;;;6245285;23;20335;-75
2021/01/16 03:44:48;;;;;;;21.70;11.80;;;-1.30;99.90;;;;;;6218455;23;20054;-75
2021/01/16 03:47:13;;;;;;;22.25;11.70;;;-1.30;99.90;;;;;;6245597;23;20320;-75
2021/01/16 03:49:39;;;;;;;21.38;11.63;;;-1.30;99.90;;;;;;6244630;22;20027;-75
2021/01/16 03:52:05;;;;;;;20.40;10.90;;;-1.30;99.90;;;;;;6247596;23;20395;-75
2021/01/16 03:54:32;;;;;;;23.00;11.35;;;-1.40;99.90;;;;;;6245619;23;20008;-75
2021/01/16 03:56:57;;;;;;;20.38;11.57;;;-1.40;99.90;;;;;;6247184;23;20317;-75
2021/01/16 03:59:23;;;;;;;22.67;11.68;;;-1.50;99.90;;;;;;6247079;22;20091;-76
2021/01/16 04:01:49;;;;;;;20.13;11.80;;;-1.50;99.90;;;;;;6247111;23;20008;-75
2021/01/16 04:04:14;;;;;;;19.40;10.63;;;-1.60;99.90;;;;;;6247252;23;20011;-75
2021/01/16 04:06:40;;;;;;;19.48;10.13;;;-1.70;99.90;;;;;;6247028;23;20479;-75
2021/01/16 04:09:05;;;;;;;17.92;10.10;;;-1.70;99.90;;;;;;6247281;23;20424;-75
2021/01/16 04:11:31;;;;;;;21.38;11.90;;;-1.80;99.90;;;;;;6247010;23;19996;-75
2021/01/16 04:13:57;;;;;;;19.50;10.75;;;-1.80;99.90;;;;;;6247056;23;20024;-75
2021/01/16 04:16:26;;;;;;;23.75;11.55;;;-1.80;99.90;;;;;;6246986;23;20004;-75
2021/01/16 04:18:51;;;;;;;20.75;10.68;;;-1.90;99.90;;;;;;6246902;23;20008;-75
2021/01/16 04:21:17;;;;;;;18.73;10.95;;;-1.90;99.90;;;;;;6246781;22;20054;-75
2021/01/16 04:23:42;;;;;;;20.05;11.35;;;-1.90;99.90;;;;;;6246834;23;20007;-75
2021/01/16 04:26:08;;;;;;;23.85;11.35;;;-1.80;99.90;;;;;;6220116;23;19996;-75
2021/01/16 04:28:33;;;;;;;19.48;11.18;;;-1.80;99.90;;;;;;6246848;23;20004;-75
2021/01/16 04:30:59;;;;;;;25.77;12.55;;;-1.80;99.90;;;;;;6219911;23;20075;-75
2021/01/16 04:33:24;;;;;;;25.92;12.75;;;-1.80;99.90;;;;;;6246709;23;20022;-75
2021/01/16 04:35:50;;;;;;;21.58;11.60;;;-1.70;99.90;;;;;;6246813;23;20065;-75
2021/01/16 04:38:15;;;;;;;26.85;12.82;;;-1.70;99.90;;;;;;6246750;23;20004;-75
2021/01/16 04:40:41;;;;;;;25.17;12.82;;;-1.70;99.90;;;;;;6219628;23;20087;-75
2021/01/16 04:43:07;;;;;;;23.58;12.63;;;-1.70;99.90;;;;;;6247149;23;20396;-75
2021/01/16 04:45:34;;;;;;;24.17;13.73;;;-1.60;99.90;;;;;;6245392;23;20427;-75
2021/01/16 04:48:02;;;;;;;23.08;12.30;;;-1.70;99.90;;;;;;6219847;23;20026;-75
2021/01/16 04:50:30;;;;;;;22.73;12.25;;;-1.70;99.90;;;;;;6246599;22;19996;-75
2021/01/16 04:53:04;;;;;;;26.25;12.68;;;-1.70;99.90;;;;;;6246660;23;20435;-75
2021/01/16 04:55:35;;;;;;;24.58;13.25;;;-1.70;99.90;;;;;;6246863;23;20000;-75
2021/01/16 04:58:09;;;;;;;25.50;13.43;;;-1.80;99.90;;;;;;6246622;23;20058;-75
2021/01/16 05:00:39;;;;;;;23.92;12.73;;;-1.80;99.90;;;;;;6244320;23;20440;-75
2021/01/16 05:03:12;;;;;;;26.58;14.23;;;-1.70;99.90;;;;;;6246807;23;20000;-75
2021/01/16 05:05:41;;;;;;;26.73;13.98;;;-1.70;99.90;;;;;;6246545;23;20003;-75
2021/01/16 05:08:08;;;;;;;26.23;14.48;;;-1.80;99.90;;;;;;6246635;23;20007;-75
2021/01/16 05:10:42;;;;;;;29.38;14.23;;;-1.70;99.90;;;;;;6246603;22;20004;-75
2021/01/16 05:13:17;;;;;;;26.55;14.60;;;-1.70;99.90;;;;;;6247040;23;20373;-75
2021/01/16 05:15:45;;;;;;;30.83;15.90;;;-1.70;99.90;;;;;;6219726;23;20008;-75
2021/01/16 05:18:17;;;;;;;24.75;13.90;;;-1.70;99.90;;;;;;6246581;23;20544;-75
2021/01/16 05:20:44;;;;;;;31.85;15.43;;;-1.80;99.90;;;;;;6219902;23;20106;-75
2021/01/16 05:23:15;;;;;;;30.20;15.15;;;-1.80;99.90;;;;;;6246456;23;20004;-75
2021/01/16 05:25:42;;;;;;;31.90;14.85;;;-1.80;99.90;;;;;;6219485;23;20349;-75
2021/01/16 05:28:09;;;;;;;31.85;16.10;;;-1.80;99.90;;;;;;6246383;23;19997;-75
2021/01/16 05:30:46;;;;;;;25.65;13.98;;;-1.80;99.90;;;;;;6219501;23;20004;-75
2021/01/16 05:33:12;;;;;;;26.15;13.90;;;-1.80;99.90;;;;;;6246331;23;20025;-75
2021/01/16 05:35:37;;;;;;;31.20;15.82;;;-1.80;99.90;;;;;;6246349;23;20086;-75
2021/01/16 05:38:04;;;;;;;30.48;15.50;;;-1.80;99.90;;;;;;6219510;23;20089;-75
2021/01/16 05:40:30;;;;;;;29.85;15.57;;;-1.80;99.90;;;;;;6259216;22;20019;-74
2021/01/16 05:42:58;;;;;;;31.50;16.48;;;-1.80;99.90;;;;;;6277221;22;20007;-74
2021/01/16 05:45:25;;;;;;;33.38;16.30;;;-1.70;99.90;;;;;;6249866;22;20466;-74
2021/01/16 05:47:51;;;;;;;32.03;16.80;;;-1.70;99.90;;;;;;6249860;22;20098;-74
2021/01/16 05:50:22;;;;;;;35.05;17.25;;;-1.70;99.90;;;;;;6266482;22;20321;-74
2021/01/16 05:52:49;;;;;;;36.08;17.13;;;-1.70;99.90;;;;;;6246862;23;20003;-74
2021/01/16 05:55:17;;;;;;;32.55;16.88;;;-1.70;99.90;;;;;;6245025;23;20008;-74
2021/01/16 05:57:47;;;;;;;34.45;17.83;;;-1.70;99.90;;;;;;6244941;23;20070;-74
2021/01/16 06:00:23;;;;;;;33.65;17.65;;;-1.70;99.90;;;;;;6246553;22;20011;-74
2021/01/16 06:02:51;;;;;;;33.60;16.27;;;-1.60;99.90;;;;;;6246345;23;20004;-74
2021/01/16 06:05:22;;;;;;;33.22;17.60;;;-1.50;99.90;;;;;;6245114;23;20004;-74
2021/01/16 06:07:49;;;;;;;35.50;16.75;;;-1.50;99.90;;;;;;6244789;23;20004;-74
2021/01/16 06:10:18;;;;;;;38.72;18.30;;;-1.60;99.90;;;;;;6246139;22;20345;-74
2021/01/16 06:12:44;;;;;;;35.25;16.33;;;-1.70;99.90;;;;;;6246048;23;20336;-74
2021/01/16 06:15:15;;;;;;;35.28;17.30;;;-1.80;99.90;;;;;;6247107;23;20015;-74
2021/01/16 06:17:49;;;;;;;42.78;18.27;;;-1.80;99.90;;;;;;6219209;23;20008;-74
2021/01/16 06:20:20;;;;;;;33.42;16.40;;;-1.80;99.90;;;;;;6244613;22;20003;-75
2021/01/16 06:22:51;;;;;;;33.63;16.90;;;-1.80;99.90;;;;;;6246504;23;20062;-74
2021/01/16 06:25:22;;;;;;;43.87;21.73;;;-1.70;99.90;;;;;;6219209;23;20008;-74
2021/01/16 06:27:49;;;;;;;37.85;18.35;;;-1.70;99.90;;;;;;6246207;23;20323;-74
2021/01/16 06:30:21;;;;;;;44.05;19.73;;;-1.60;99.90;;;;;;6244284;22;20004;-74
2021/01/16 06:32:53;;;;;;;36.80;17.55;;;-1.60;99.90;;;;;;6245870;23;20471;-74
2021/01/16 06:35:20;;;;;;;31.08;14.30;;;-1.70;99.90;;;;;;6244472;23;20004;-74
2021/01/16 06:37:46;;;;;;;44.70;20.85;;;-1.70;99.90;;;;;;6244312;23;20008;-74
2021/01/16 06:40:14;;;;;;;37.78;18.73;;;-1.70;99.90;;;;;;6245842;22;20012;-74
2021/01/16 06:42:40;;;;;;;47.60;21.38;;;-1.70;99.90;;;;;;6245963;23;20011;-74
2021/01/16 06:45:08;;;;;;;42.40;19.67;;;-1.80;99.90;;;;;;6245852;23;20336;-74
2021/01/16 06:47:35;;;;;;;37.78;18.73;;;-1.80;99.90;;;;;;6246179;23;20436;-74
2021/01/16 06:50:07;;;;;;;44.17;20.10;;;-1.80;99.90;;;;;;6246047;22;20419;-74
2021/01/16 06:52:37;;;;;;;44.75;19.55;;;-1.70;99.90;;;;;;6245894;23;20115;-74
2021/01/16 06:55:06;;;;;;;40.72;20.92;;;-1.80;99.90;;;;;;6244553;23;20004;-74
2021/01/16 06:57:35;;;;;;;44.15;21.10;;;-1.80;99.90;;;;;;6219088;23;20054;-74
2021/01/16 07:00:06;;;;;;;46.65;21.08;;;-1.90;99.90;;;;;;6245842;22;20000;-74
2021/01/16 07:02:33;;;;;;;47.85;22.45;;;-2.00;99.90;;;;;;6245097;23;20015;-74
2021/01/16 07:05:10;;;;;;;43.58;20.63;;;-1.90;99.90;;;;;;6219147;23;20022;-74
2021/01/16 07:07:41;;;;;;;51.97;23.20;;;-2.00;99.90;;;;;;6245956;23;19996;-74
2021/01/16 07:10:17;;;;;;;50.15;23.27;;;-2.00;99.90;;;;;;6244521;22;20028;-74
2021/01/16 07:12:52;;;;;;;47.90;22.17;;;-2.00;99.90;;;;;;6219098;23;20000;-74
2021/01/16 07:15:19;;;;;;;46.88;21.08;;;-2.00;99.90;;;;;;6246542;23;20051;-74
2021/01/16 07:17:46;;;;;;;47.60;22.00;;;-2.00;99.90;;;;;;6246759;23;20015;-74
2021/01/16 07:20:13;;;;;;;45.35;21.05;;;-1.90;99.90;;;;;;6247109;22;20054;-74
2021/01/16 07:22:43;;;;;;;42.75;21.38;;;-1.90;99.90;;;;;;6247432;23;20007;-74
2021/01/16 07:25:11;;;;;;;45.97;21.25;;;-1.80;99.90;;;;;;6246454;23;20004;-74
2021/01/16 07:27:37;;;;;;;47.45;22.33;;;-1.80;99.90;;;;;;6248463;23;20071;-74
2021/01/16 07:30:09;;;;;;;53.00;22.00;;;-1.70;99.90;;;;;;6222376;23;20452;-74
2021/01/16 07:32:34;;;;;;;52.15;22.50;;;-1.70;99.90;;;;;;6249250;23;20054;-74
2021/01/16 07:35:00;;;;;;;47.15;21.90;;;-1.70;99.90;;;;;;6249248;23;20000;-75
2021/01/16 07:37:27;;;;;;;49.38;22.92;;;-1.70;99.90;;;;;;6249995;23;20321;-74
2021/01/16 07:39:57;;;;;;;47.10;22.33;;;-1.70;99.90;;;;;;6249306;22;20008;-74
2021/01/16 07:42:26;;;;;;;47.17;21.95;;;-1.70;99.90;;;;;;6248388;23;20031;-74
2021/01/16 07:45:08;;;;;;;45.33;20.90;;;-1.70;99.90;;;;;;6247847;23;20004;-74
2021/01/16 07:47:41;;;;;;;;;;;-1.70;99.90;;;;;;6246563;23;20001;-74
2021/01/16 07:50:20;;;;;;;47.17;21.67;;;-1.60;99.90;;;;;;6220814;23;19906;-74
2021/01/16 07:53:02;;;;;;;43.22;19.63;;;-1.60;99.90;;;;;;6248023;23;20001;-74
2021/01/16 07:55:37;;;;;;;41.43;19.50;;;-1.60;99.90;;;;;;6248143;23;20004;-74
2021/01/16 07:58:17;;;;;;;43.20;19.42;;;-1.60;99.90;;;;;;6221119;23;20234;-74
2021/01/16 08:01:07;;;;;;;39.25;18.55;;;-1.50;99.90;;;;;;6247662;22;20351;-74
2021/01/16 08:03:58;;;;;;;41.85;19.88;;;-1.50;99.90;;;;;;6221203;23;20008;-74
2021/01/16 08:06:35;;;;;;;40.10;18.73;;;-1.50;99.90;;;;;;6247733;23;20010;-74
2021/01/16 08:09:04;;;;;;;39.20;18.02;;;-1.40;99.90;;;;;;6248211;23;20038;-74
2021/01/16 08:11:34;;;;;;;38.75;18.38;;;-1.40;99.90;;;;;;6247594;22;20005;-74
2021/01/16 08:14:03;;;;;;;40.03;18.77;;;-1.40;99.90;;;;;;6247584;23;20004;-74
2021/01/16 08:16:28;;;;;;;40.70;18.50;;;-1.40;99.90;;;;;;6246017;23;20012;-74
2021/01/16 08:19:11;;;;;;;35.60;18.23;;;-1.30;99.90;;;;;;6220767;23;20083;-75
2021/01/16 08:21:37;;;;;;;27.25;13.63;;;-1.20;99.90;;;;;;6247900;22;20007;-74
2021/01/16 08:24:06;;;;;;;33.83;17.73;;;-1.20;99.90;;;;;;6248002;23;20011;-74
2021/01/16 08:26:32;;;;;;;33.78;16.33;;;-1.20;99.90;;;;;;6245813;23;20007;-74
2021/01/16 08:28:59;;;;;;;35.00;16.40;;;-1.10;99.90;;;;;;6247338;23;20050;-74
2021/01/16 08:31:29;;;;;;;40.50;18.35;;;-1.10;99.90;;;;;;6220511;23;20004;-74
2021/01/16 08:33:55;;;;;;;34.72;17.17;;;-1.10;99.90;;;;;;6247748;23;20006;-74
2021/01/16 08:36:21;;;;;;;34.55;17.45;;;-1.10;99.90;;;;;;6247729;23;20024;-74
2021/01/16 08:38:49;;;;;;;32.58;16.77;;;-1.00;99.90;;;;;;6220841;23;20058;-74
2021/01/16 08:41:25;;;;;;;34.05;16.52;;;-1.00;99.90;;;;;;6247110;22;20015;-74
2021/01/16 08:43:57;;;;;;;36.17;18.73;;;-1.00;99.90;;;;;;6247849;23;20063;-74
2021/01/16 08:46:36;;;;;;;35.67;16.97;;;-0.90;99.90;;;;;;6245840;23;20092;-74
2021/01/16 08:49:18;;;;;;;34.08;16.30;;;-0.90;99.90;;;;;;6247193;23;20000;-73
2021/01/16 08:51:51;;;;;;;38.42;19.00;;;-0.80;99.90;;;;;;6245745;22;20462;-73
2021/01/16 08:54:20;;;;;;;;;;;-0.80;99.90;;;;;;6247702;23;20004;-74
2021/01/16 08:56:47;;;;;;;31.38;14.95;;;-0.80;99.90;;;;;;6247387;23;20354;-74
2021/01/16 08:59:27;;;;;;;34.92;16.23;;;-0.80;99.90;;;;;;6245859;23;20004;-74
2021/01/16 09:02:23;;;;;;;28.92;15.02;;;-0.70;99.90;;;;;;6247656;23;20064;-74
2021/01/16 09:04:49;;;;;;;30.92;15.93;;;-0.50;99.90;;;;;;6220875;23;20061;-74
2021/01/16 09:07:23;;;;;;;32.88;15.57;;;-0.50;99.90;;;;;;6247295;23;20075;-74
2021/01/16 09:09:56;;;;;;;36.38;17.00;;;-0.50;99.90;;;;;;6247317;22;19996;-74
2021/01/16 09:12:32;;;;;;;30.25;14.45;;;-0.50;99.90;;;;;;6247621;23;20024;-74
2021/01/16 09:15:26;;;;;;;30.70;15.23;;;-0.50;99.90;;;;;;6220024;23;20008;-74
2021/01/16 09:18:01;;;;;;;27.90;13.88;;;-0.50;99.90;;;;;;6245235;23;20015;-74
2021/01/16 09:20:27;;;;;;;29.00;14.55;;;-0.50;99.90;;;;;;6246619;22;20001;-74
2021/01/16 09:22:52;;;;;;;26.35;13.32;;;-0.50;99.90;;;;;;6245395;23;20012;-74
2021/01/16 09:25:25;;;;;;;27.05;13.95;;;-0.40;99.90;;;;;;6246790;23;20004;-74
2021/01/16 09:27:52;;;;;;;29.38;14.75;;;-0.30;99.90;;;;;;6246782;23;19996;-74
2021/01/16 09:30:20;;;;;;;28.92;15.88;;;-0.30;99.90;;;;;;6245300;22;20000;-74
2021/01/16 09:32:45;;;;;;;30.85;15.95;;;-0.30;99.90;;;;;;6248616;23;20332;-74
2021/01/16 09:35:11;;;;;;;31.08;16.15;;;-0.30;99.90;;;;;;6246474;23;20036;-74
2021/01/16 09:37:37;;;;;;;31.83;16.30;;;-0.20;99.90;;;;;;6219595;23;20010;-74
2021/01/16 09:40:12;;;;;;;34.22;17.42;;;-0.30;99.90;;;;;;6221601;23;20374;-74
2021/01/16 09:42:48;;;;;;;34.92;16.80;;;-0.30;99.90;;;;;;6220016;23;20004;-74
2021/01/16 09:45:16;;;;;;;32.53;15.98;;;-0.10;99.90;;;;;;6246472;23;20004;-74
2021/01/16 09:47:44;;;;;;;32.50;16.92;;;-0.20;99.90;;;;;;6246033;23;20019;-74
2021/01/16 09:50:16;;;;;;;32.00;16.27;;;-0.10;99.90;;;;;;6246159;22;20071;-74
2021/01/16 09:52:54;;;;;;;28.27;14.82;;;0.00;99.90;;;;;;6246373;23;19996;-74
2021/01/16 09:55:31;;;;;;;37.05;17.45;;;0.00;99.90;;;;;;6219396;23;20015;-74
2021/01/16 09:57:58;;;;;;;30.98;16.77;;;0.00;99.90;;;;;;6246614;23;20007;-74
2021/01/16 10:00:33;;;;;;;31.48;16.83;;;-0.10;99.90;;;;;;6220133;23;20085;-74
2021/01/16 10:03:08;;;;;;;33.38;16.95;;;-0.10;99.90;;;;;;6246300;23;20063;-75
2021/01/16 10:05:42;;;;;;;31.70;16.83;;;0.10;99.90;;;;;;6219228;23;20015;-74
2021/01/16 10:08:08;;;;;;;32.38;17.20;;;0.20;99.90;;;;;;6246453;23;20034;-74
2021/01/16 10:11:01;;;;;;;34.95;17.25;;;0.30;99.90;;;;;;6246170;22;19997;-74
2021/01/16 10:13:34;;;;;;;32.72;16.23;;;0.20;99.90;;;;;;6242835;23;20007;-74
2021/01/16 10:16:05;;;;;;;33.78;16.98;;;0.20;99.90;;;;;;6246037;23;20004;-74
2021/01/16 10:18:32;;;;;;;34.78;16.90;;;0.20;99.90;;;;;;6246179;23;20031;-74
2021/01/16 10:21:00;;;;;;;31.55;16.42;;;0.40;99.90;;;;;;6246048;22;20000;-75
2021/01/16 10:23:32;;;;;;;29.48;15.35;;;0.50;99.90;;;;;;6246059;23;20004;-73
2021/01/16 10:26:07;;;;;;;32.13;17.02;;;0.60;99.90;;;;;;6245815;23;20004;-74
2021/01/16 10:28:36;;;;;;;31.73;17.77;;;0.60;99.90;;;;;;6245874;23;20423;-74
2021/01/16 10:31:04;;;;;;;31.50;17.65;;;1.10;99.90;;;;;;6245872;22;19996;-74
2021/01/16 10:33:39;;;;;;;26.92;15.02;;;1.50;99.90;;;;;;6246264;23;20084;-74
2021/01/16 10:36:25;;;;;;;24.83;13.98;;;1.90;99.90;;;;;;6246096;23;20380;-74
2021/01/16 10:38:53;;;;;;;26.02;14.55;;;2.30;99.90;;;;;;6219111;23;20054;-75
2021/01/16 10:41:30;;;;;;;24.80;14.07;;;3.20;99.90;;;;;;6245926;22;20008;-73
2021/01/16 10:44:02;;;;;;;27.42;15.27;;;4.10;99.90;;;;;;6245844;23;20011;-74
2021/01/16 10:46:46;;;;;;;23.52;14.82;;;4.70;99.90;;;;;;6245889;23;20071;-74
2021/01/16 10:49:29;;;;;;;25.80;14.48;;;5.10;99.90;;;;;;6244267;23;20105;-75
2021/01/16 10:52:02;;;;;;;;;;;4.80;99.90;;;;;;6244810;23;20027;-75
2021/01/16 10:54:28;;;;;;;22.83;12.80;;;4.70;99.90;;;;;;6218851;23;19906;-75
2021/01/16 10:57:06;;;;;;;23.45;13.57;;;4.40;99.90;;;;;;6245786;23;20000;-75
2021/01/16 10:59:33;;;;;;;20.02;12.38;;;4.00;99.90;;;;;;6247948;22;20304;-75
2021/01/16 11:02:09;;;;;;;24.85;14.02;;;3.80;99.90;;;;;;6248042;23;20011;-74
2021/01/16 11:04:40;;;;;;;24.60;13.23;;;3.60;99.90;;;;;;6246439;23;20004;-75
2021/01/16 11:07:09;;;;;;;24.67;15.30;;;3.40;99.90;;;;;;6246707;23;20007;-75
2021/01/16 11:09:34;;;;;;;29.55;15.85;;;3.40;99.90;;;;;;6248381;22;20000;-74
2021/01/16 11:12:04;;;;;;;27.88;16.83;;;3.40;99.90;;;;;;6221334;23;20451;-74
2021/01/16 11:14:37;;;;;;;25.30;14.35;;;3.30;99.90;;;;;;6248885;23;20395;-74
2021/01/16 11:17:04;;;;;;;23.75;13.88;;;3.30;99.90;;;;;;6221196;23;20008;-75
2021/01/16 11:19:52;;;;;;;22.42;13.82;;;3.80;99.90;;;;;;6247963;22;20008;-76
2021/01/16 11:22:20;;;;;;;21.65;14.10;;;6.60;99.90;;;;;;6220888;23;20496;-76
2021/01/16 11:25:06;;;;;;;20.30;13.45;;;9.00;81.10;;;;;;6220711;23;20008;-76
2021/01/16 11:27:34;;;;;;;20.02;12.52;;;8.50;75.70;;;;;;6248107;23;20062;-75
2021/01/16 11:30:13;;;;;;;20.00;12.20;;;7.70;77.80;;;;;;6220875;23;20134;-75
2021/01/16 11:32:39;;;;;;;21.70;12.02;;;6.60;81.20;;;;;;6247790;23;19992;-74
2021/01/16 11:35:13;;;;;;;17.45;11.30;;;5.60;87.00;;;;;;6247598;23;20087;-75
2021/01/16 11:37:56;;;;;;;17.77;11.68;;;5.30;89.60;;;;;;6246064;23;20030;-75
2021/01/16 11:40:30;;;;;;;18.13;10.38;;;5.20;91.40;;;;;;6230298;22;20035;-76
2021/01/16 11:43:04;;;;;;;14.82;10.30;;;5.00;91.60;;;;;;6279088;22;20000;-75
2021/01/16 11:45:30;;;;;;;18.40;11.05;;;4.50;93.30;;;;;;6279370;22;20012;-75
2021/01/16 11:47:58;;;;;;;15.98;10.45;;;4.10;94.60;;;;;;6280545;22;20442;-75
2021/01/16 11:50:26;;;;;;;17.52;10.57;;;3.60;96.70;;;;;;6273041;22;20000;-75
2021/01/16 11:52:52;;;;;;;16.35;10.13;;;3.70;98.40;;;;;;6246988;23;20000;-75
2021/01/16 11:55:18;;;;;;;14.50;9.52;;;3.60;99.30;;;;;;6222518;23;20008;-75
2021/01/16 11:57:45;;;;;;;17.10;10.23;;;3.50;99.90;;;;;;6222376;23;20008;-75
2021/01/16 12:00:13;;;;;;;16.13;9.82;;;3.70;99.90;;;;;;6220847;22;20408;-75
2021/01/16 12:02:41;;;;;;;16.83;9.07;;;3.60;99.90;;;;;;6245784;23;20087;-76
2021/01/16 12:05:14;;;;;;;17.00;9.45;;;3.70;99.40;;;;;;6247454;23;20001;-75
2021/01/16 12:07:49;;;;;;;16.30;9.40;;;3.80;99.50;;;;;;6246130;23;20032;-75
2021/01/16 12:10:23;;;;;;;15.35;9.60;;;4.10;99.30;;;;;;6247482;22;19993;-76
2021/01/16 12:12:48;;;;;;;17.10;10.30;;;5.00;96.30;;;;;;6247819;23;19996;-76
2021/01/16 12:15:20;;;;;;;17.95;10.13;;;5.40;93.50;;;;;;6247323;23;20004;-75
2021/01/16 12:17:51;;;;;;;16.27;10.35;;;5.40;93.00;;;;;;6250324;23;20008;-75
2021/01/16 12:20:18;;;;;;;21.83;10.48;;;5.30;92.50;;;;;;6225641;22;20436;-77
2021/01/16 12:22:49;;;;;;;20.20;11.02;;;5.40;91.80;;;;;;6249200;23;20040;-76
2021/01/16 12:25:16;;;;;;;17.83;10.68;;;5.40;91.30;;;;;;6247282;23;20435;-76
2021/01/16 12:27:53;;;;;;;16.48;10.65;;;5.40;91.50;;;;;;6245478;23;20075;-76
2021/01/16 12:30:21;;;;;;;15.23;10.27;;;5.50;91.00;;;;;;6220519;23;20435;-76
2021/01/16 12:32:48;;;;;;;18.13;11.45;;;5.30;90.10;;;;;;6247198;23;19996;-76
2021/01/16 12:35:15;;;;;;;18.35;11.93;;;5.20;90.40;;;;;;6220215;23;20054;-76
2021/01/16 12:37:42;;;;;;;18.63;11.48;;;5.00;91.10;;;;;;6247410;23;20004;-76
2021/01/16 12:40:18;;;;;;;19.73;11.93;;;5.80;89.70;;;;;;6246861;22;20035;-76
2021/01/16 12:42:45;;;;;;;20.75;12.02;;;6.70;82.50;;;;;;6247279;23;20015;-76
2021/01/16 12:45:25;;;;;;;17.70;11.52;;;6.80;80.80;;;;;;6245867;23;20054;-76